createdAt,value
2022-12-24T00:04:17.269Z,23.7
2022-12-24T00:09:35.188Z,23.6
2022-12-24T00:14:53.516Z,23.7
2022-12-24T00:20:11.463Z,23.7
2022-12-24T00:25:29.675Z,23.7
2022-12-24T00:30:48.280Z,23.7
2022-12-24T00:36:06.618Z,23.7
2022-12-24T00:41:26.392Z,23.7
2022-12-24T00:46:44.937Z,23.7
2022-12-24T00:52:03.677Z,23.7
2022-12-24T00:57:22.430Z,23.7
2022-12-24T01:02:41.484Z,23.7
2022-12-24T01:08:00.717Z,23.7
2022-12-24T01:13:18.931Z,23.6
2022-12-24T01:18:37.153Z,23.7
2022-12-24T01:23:55.617Z,23.7
2022-12-24T01:29:14.390Z,23.7
2022-12-24T01:34:32.935Z,23.7
2022-12-24T01:39:51.409Z,23.7
2022-12-24T01:45:10.174Z,23.7
2022-12-24T01:50:28.687Z,23.7
2022-12-24T01:55:47.419Z,23.7
2022-12-24T02:01:06.171Z,23.7
2022-12-24T02:06:24.309Z,23.7
2022-12-24T02:11:42.767Z,23.7
2022-12-24T02:17:01.554Z,23.7
2022-12-24T02:22:20.352Z,23.7
2022-12-24T02:27:38.552Z,23.7
2022-12-24T02:32:57.021Z,23.6
2022-12-24T02:38:15.010Z,23.6
2022-12-24T02:43:33.220Z,23.7
2022-12-24T02:48:51.448Z,23.7
2022-12-24T02:54:10.214Z,23.7
2022-12-24T02:59:28.423Z,23.7
2022-12-24T03:04:46.931Z,23.7
2022-12-24T03:10:05.149Z,23.7
2022-12-24T03:15:23.610Z,23.7
2022-12-24T03:20:42.393Z,23.7
2022-12-24T03:26:01.186Z,23.7
2022-12-24T03:31:19.746Z,23.7
2022-12-24T03:36:38.371Z,23.7
2022-12-24T03:41:56.884Z,23.7
2022-12-24T03:47:15.087Z,23.7
2022-12-24T03:52:33.590Z,23.7
2022-12-24T03:57:52.109Z,23.7
2022-12-24T04:03:10.149Z,23.7
2022-12-24T04:08:28.739Z,23.7
2022-12-24T04:13:46.752Z,23.7
2022-12-24T04:19:04.947Z,23.7
2022-12-24T04:24:23.204Z,23.7
2022-12-24T04:29:41.445Z,23.7
2022-12-24T04:34:59.626Z,23.7
2022-12-24T04:40:18.111Z,23.7
2022-12-24T04:45:36.848Z,23.7
2022-12-24T04:50:55.485Z,23.7
2022-12-24T04:56:13.391Z,23.7
2022-12-24T05:01:31.941Z,23.7
2022-12-24T05:06:50.882Z,23.7
2022-12-24T05:12:09.075Z,23.8
2022-12-24T05:17:27.867Z,23.7
2022-12-24T05:22:46.061Z,23.8
2022-12-24T05:28:04.559Z,23.8
2022-12-24T05:33:22.945Z,23.8
2022-12-24T05:38:40.852Z,23.8
2022-12-24T05:43:59.055Z,23.8
2022-12-24T05:49:17.578Z,23.8
2022-12-24T05:54:36.102Z,23.8
2022-12-24T05:59:54.588Z,23.8
2022-12-24T06:05:12.757Z,23.8
2022-12-24T06:10:30.967Z,23.8
2022-12-24T06:15:34.056Z,23.8
2022-12-24T06:20:52.449Z,23.8
2022-12-24T06:26:11.233Z,23.8
2022-12-24T06:31:29.712Z,23.8
2022-12-24T06:36:48.018Z,23.8
2022-12-24T06:42:06.240Z,23.8
2022-12-24T06:47:25.010Z,23.8
2022-12-24T06:52:43.822Z,23.8
2022-12-24T06:58:02.083Z,23.8
2022-12-24T07:03:20.375Z,23.8
2022-12-24T07:08:39.043Z,23.8
2022-12-24T07:13:57.798Z,23.9
2022-12-24T07:19:16.316Z,24
2022-12-24T07:24:34.855Z,24
2022-12-24T07:29:53.179Z,24
2022-12-24T07:35:11.962Z,24
2022-12-24T07:40:30.522Z,24
2022-12-24T07:45:48.737Z,24
2022-12-24T07:51:07.243Z,24
2022-12-24T07:56:25.499Z,24.1
2022-12-24T08:01:44.842Z,24.1
2022-12-24T08:07:04.139Z,24.1
2022-12-24T08:12:22.938Z,24.1
2022-12-24T08:17:41.120Z,24.1
2022-12-24T08:22:59.910Z,24.1
2022-12-24T08:28:18.414Z,24.1
2022-12-24T08:33:36.885Z,24.1
2022-12-24T08:38:55.459Z,24.1
2022-12-24T08:44:13.982Z,24.1
2022-12-24T08:49:32.156Z,24.1
2022-12-24T08:54:50.682Z,24.1
2022-12-24T09:00:08.941Z,24.1
2022-12-24T09:05:27.705Z,24.1
2022-12-24T09:10:46.502Z,24.1
2022-12-24T09:16:05.275Z,24.1
2022-12-24T09:21:24.243Z,24.1
2022-12-24T09:26:43.007Z,24.1
2022-12-24T09:32:01.956Z,24.1
2022-12-24T09:37:20.574Z,24.1
2022-12-24T09:42:38.783Z,24.1
2022-12-24T09:47:57.275Z,24
2022-12-24T09:53:15.736Z,24
2022-12-24T09:58:34.221Z,24
2022-12-24T10:03:52.661Z,24
2022-12-24T10:09:10.689Z,24
2022-12-24T10:14:13.299Z,23.9
2022-12-24T10:19:31.517Z,23.9
2022-12-24T10:24:51.502Z,23.9
2022-12-24T10:30:17.623Z,23.9
2022-12-24T10:35:36.360Z,23.9
2022-12-24T10:40:54.569Z,23.9
2022-12-24T10:46:13.512Z,23.9
2022-12-24T10:51:32.532Z,23.9
2022-12-24T10:56:50.715Z,23.9
2022-12-24T11:02:09.233Z,23.8
2022-12-24T11:07:28.188Z,23.9
2022-12-24T11:13:36.032Z,23.8
2022-12-24T11:18:56.498Z,23.8
2022-12-24T11:24:15.022Z,23.8
2022-12-24T11:29:33.221Z,23.8
2022-12-24T11:34:52.038Z,23.9
2022-12-24T11:40:10.935Z,23.9
2022-12-24T11:45:29.462Z,23.9
2022-12-24T11:50:47.943Z,23.9
2022-12-24T11:56:06.562Z,23.9
2022-12-24T12:01:25.462Z,23.9
2022-12-24T12:06:44.115Z,23.9
2022-12-24T12:12:02.628Z,23.9
2022-12-24T12:17:21.104Z,23.9
2022-12-24T12:22:39.875Z,23.9
2022-12-24T12:27:58.104Z,23.9
2022-12-24T12:33:16.646Z,23.9
2022-12-24T12:38:35.495Z,24
2022-12-24T12:43:54.296Z,24
2022-12-24T12:49:13.071Z,24
2022-12-24T12:54:31.804Z,24
2022-12-24T12:59:50.847Z,23.9
2022-12-24T13:05:09.715Z,23.9
2022-12-24T13:10:28.428Z,23.9
2022-12-24T13:15:46.815Z,23.9
2022-12-24T13:21:05.069Z,23.9
2022-12-24T13:26:23.570Z,23.9
2022-12-24T13:31:26.509Z,23.9
2022-12-24T13:36:29.900Z,23.9
2022-12-24T13:41:48.095Z,23.9
2022-12-24T13:47:06.637Z,23.9
2022-12-24T13:52:25.110Z,23.9
2022-12-24T13:57:43.571Z,23.9
2022-12-24T14:03:02.241Z,23.9
2022-12-24T14:08:20.350Z,23.9
2022-12-24T14:13:39.107Z,23.9
2022-12-24T14:18:57.649Z,23.9
2022-12-24T14:24:15.922Z,23.9
2022-12-24T14:29:34.416Z,23.9
2022-12-24T14:34:52.908Z,23.9
2022-12-24T14:40:11.641Z,23.9
2022-12-24T14:45:30.309Z,23.9
2022-12-24T14:50:48.751Z,23.9
2022-12-24T14:56:07.207Z,23.9
2022-12-24T15:01:26.459Z,23.9
2022-12-24T15:06:45.734Z,23.9
2022-12-24T15:12:04.115Z,23.9
2022-12-24T15:17:22.583Z,23.9
2022-12-24T15:22:41.381Z,23.8
2022-12-24T15:27:59.316Z,23.8
2022-12-24T15:33:18.070Z,23.8
2022-12-24T15:38:36.872Z,23.8
2022-12-24T15:43:55.068Z,23.8
2022-12-24T15:49:13.551Z,23.8
2022-12-24T15:54:31.794Z,23.8
2022-12-24T15:59:50.264Z,23.8
2022-12-24T16:05:08.753Z,23.7
2022-12-24T16:10:27.536Z,23.7
2022-12-24T16:15:30.013Z,23.7
2022-12-24T16:20:48.583Z,23.7
2022-12-24T16:26:07.997Z,23.7
2022-12-24T16:31:27.031Z,23.7
2022-12-24T16:36:45.431Z,23.7
2022-12-24T16:42:04.274Z,23.7
2022-12-24T16:47:22.496Z,23.7
2022-12-24T16:52:40.679Z,23.7
2022-12-24T16:57:59.204Z,23.7
2022-12-24T17:03:17.747Z,23.7
2022-12-24T17:08:36.514Z,23.7
2022-12-24T17:13:54.765Z,23.6
2022-12-24T17:19:13.351Z,23.6
2022-12-24T17:24:31.828Z,23.7
2022-12-24T17:29:50.347Z,23.6
2022-12-24T17:35:08.878Z,23.6
2022-12-24T17:40:27.367Z,23.6
2022-12-24T17:45:45.869Z,23.6
2022-12-24T17:51:04.518Z,23.6
2022-12-24T17:56:23.126Z,23.6
2022-12-24T18:01:41.983Z,23.6
2022-12-24T18:07:03.366Z,23.6
2022-12-24T18:12:21.889Z,23.6
2022-12-24T18:17:40.402Z,23.6
2022-12-24T18:22:58.913Z,23.6
2022-12-24T18:28:17.399Z,23.6
2022-12-24T18:33:36.216Z,23.6
2022-12-24T18:38:54.441Z,23.6
2022-12-24T18:44:12.921Z,23.6
2022-12-24T18:49:31.451Z,23.6
2022-12-24T18:54:49.932Z,23.6
2022-12-24T19:00:08.701Z,23.6
2022-12-24T19:05:27.147Z,23.6
2022-12-24T19:10:45.323Z,23.6
2022-12-24T19:16:04.076Z,23.6
2022-12-24T19:21:23.054Z,23.6
2022-12-24T19:26:41.901Z,23.6
2022-12-24T19:32:00.515Z,23.6
2022-12-24T19:37:19.373Z,23.6
2022-12-24T19:42:38.144Z,23.6
2022-12-24T19:47:56.930Z,23.6
2022-12-24T19:53:15.744Z,23.6
2022-12-24T19:58:33.924Z,23.6
2022-12-24T20:03:52.414Z,23.6
2022-12-24T20:09:10.945Z,23.6
2022-12-24T20:14:29.130Z,23.6
2022-12-24T20:19:47.898Z,23.5
2022-12-24T20:25:06.417Z,23.5
2022-12-24T20:30:24.890Z,23.5
2022-12-24T20:35:43.378Z,23.5
2022-12-24T20:41:01.993Z,23.5
2022-12-24T20:46:20.825Z,23.5
2022-12-24T20:51:39.172Z,23.5
2022-12-24T20:56:59.528Z,23.5
2022-12-24T21:02:18.738Z,23.5
2022-12-24T21:07:38.060Z,23.5
2022-12-24T21:12:56.847Z,23.5
2022-12-24T21:18:15.621Z,23.5
2022-12-24T21:23:34.088Z,23.5
2022-12-24T21:28:52.309Z,23.5
2022-12-24T21:34:10.502Z,23.5
2022-12-24T21:39:29.273Z,23.5
2022-12-24T21:44:47.802Z,23.5
2022-12-24T21:50:06.568Z,23.5
2022-12-24T21:55:25.334Z,23.5
2022-12-24T22:00:43.326Z,23.5
2022-12-24T22:06:01.254Z,23.5
2022-12-24T22:11:20.045Z,23.5
2022-12-24T22:16:38.724Z,23.5
2022-12-24T22:21:57.693Z,23.5
2022-12-24T22:27:16.184Z,23.5
2022-12-24T22:32:34.720Z,23.5
2022-12-24T22:38:00.267Z,23.5
2022-12-24T22:43:18.694Z,23.5
2022-12-24T22:48:37.509Z,23.5
2022-12-24T22:53:56.259Z,23.5
2022-12-24T22:59:15.010Z,23.5
2022-12-24T23:04:33.809Z,23.5
2022-12-24T23:09:52.286Z,23.5
2022-12-24T23:15:10.809Z,23.5
2022-12-24T23:20:29.317Z,23.5
2022-12-24T23:25:48.062Z,23.5
2022-12-24T23:31:06.610Z,23.4
2022-12-24T23:36:25.319Z,23.5
2022-12-24T23:41:43.517Z,23.4
2022-12-24T23:47:02.505Z,23.4
2022-12-24T23:52:21.098Z,23.5
2022-12-24T23:57:39.331Z,23.4
